Time;durP1;ratioP1;P1;durP2;ratioP2;P2;SDS_P1;SDS_P2;PMS_P1;PMS_P2;Temp;Humidity;BMP_temperature;BMP_pressure;BME280_temperature;BME280_humidity;BME280_pressure;Samples;Min_cycle;Max_cycle;Signal;HPM_P1;HPM_P2
2022/10/21 00:02:04;;;;;;;6.40;4.07;;;10.90;92.80;;;;;;5054149;28;20033;-67
2022/10/21 00:04:31;;;;;;;7.75;4.18;;;10.90;92.90;;;;;;5074295;28;20387;-66
2022/10/21 00:06:57;;;;;;;7.10;3.80;;;10.90;92.90;;;;;;5054217;28;20365;-66
2022/10/21 00:09:23;;;;;;;6.82;3.95;;;10.90;93.00;;;;;;5054343;28;20025;-65
2022/10/21 00:11:49;;;;;;;6.65;4.25;;;10.90;92.90;;;;;;5054377;28;20465;-66
2022/10/21 00:14:15;;;;;;;5.40;3.92;;;10.90;92.80;;;;;;5054743;28;20040;-66
2022/10/21 00:16:40;;;;;;;5.90;4.00;;;10.90;92.90;;;;;;5054551;28;20032;-65
2022/10/21 00:19:06;;;;;;;6.43;4.00;;;10.90;92.90;;;;;;5035959;28;20369;-65
2022/10/21 00:21:32;;;;;;;5.75;4.18;;;10.90;92.90;;;;;;5054809;28;20082;-66
2022/10/21 00:23:58;;;;;;;6.75;4.13;;;10.90;92.80;;;;;;5054372;28;20025;-65
2022/10/21 00:26:23;;;;;;;6.07;4.00;;;10.90;93.00;;;;;;5054595;28;20040;-65
2022/10/21 00:28:55;;;;;;;7.85;4.32;;;10.90;92.90;;;;;;5053983;28;20029;-66
2022/10/21 00:31:21;;;;;;;4.35;3.70;;;10.90;93.10;;;;;;5054105;28;20377;-65
2022/10/21 00:33:47;;;;;;;9.02;4.63;;;10.90;93.10;;;;;;5054306;28;20033;-66
2022/10/21 00:36:14;;;;;;;6.18;3.83;;;10.80;93.20;;;;;;5053999;28;20373;-65
2022/10/21 00:38:41;;;;;;;6.22;3.42;;;10.80;93.30;;;;;;5054418;28;20359;-64
2022/10/21 00:41:07;;;;;;;7.18;4.30;;;10.80;93.30;;;;;;5054360;28;20032;-65
2022/10/21 00:44:02;;;;;;;6.03;3.83;;;10.80;93.40;;;;;;5053905;28;20021;-66
2022/10/21 00:46:42;;;;;;;8.68;4.63;;;10.80;93.60;;;;;;5054257;28;20025;-65
2022/10/21 00:49:22;;;;;;;6.30;4.10;;;10.70;93.70;;;;;;5053716;28;20017;-64
2022/10/21 00:51:55;;;;;;;9.53;3.93;;;10.80;93.60;;;;;;5054095;28;20100;-65
2022/10/21 00:54:23;;;;;;;8.80;4.38;;;10.70;93.60;;;;;;5053964;28;20311;-66
2022/10/21 00:56:50;;;;;;;6.93;4.25;;;10.70;93.80;;;;;;5066948;28;20063;-66
2022/10/21 00:59:16;;;;;;;6.70;4.22;;;10.70;94.00;;;;;;5075279;28;20023;-65
2022/10/21 01:01:43;;;;;;;8.35;5.43;;;10.70;93.80;;;;;;5074794;28;20049;-65
2022/10/21 01:04:09;;;;;;;5.63;4.07;;;10.60;94.10;;;;;;5073798;28;20025;-65
2022/10/21 01:06:35;;;;;;;8.52;4.28;;;10.60;94.10;;;;;;5074044;28;20032;-65
2022/10/21 01:09:01;;;;;;;7.18;4.30;;;10.60;94.20;;;;;;5073615;28;20036;-65
2022/10/21 01:11:29;;;;;;;6.00;3.90;;;10.60;94.60;;;;;;5073749;28;20032;-65
2022/10/21 01:14:13;;;;;;;7.57;4.15;;;10.60;94.30;;;;;;5073891;28;20029;-66
2022/10/21 01:16:42;;;;;;;7.40;4.10;;;10.60;94.30;;;;;;5074539;28;20052;-65
2022/10/21 01:19:20;;;;;;;8.18;4.25;;;10.60;94.30;;;;;;5075821;28;20381;-65
2022/10/21 01:22:04;;;;;;;5.78;4.25;;;10.60;94.20;;;;;;5073564;28;20032;-64
2022/10/21 01:24:51;;;;;;;6.82;4.43;;;10.60;94.20;;;;;;5073473;28;20480;-65
2022/10/21 01:27:54;;;;;;;10.57;4.28;;;10.60;94.30;;;;;;5073028;28;20102;-65
2022/10/21 01:30:41;;;;;;;7.60;4.53;;;10.50;94.30;;;;;;5057608;28;20064;-65
2022/10/21 01:33:28;;;;;;;9.38;4.78;;;10.50;94.70;;;;;;5072959;28;20119;-65
2022/10/21 01:36:24;;;;;;;7.00;4.35;;;10.50;94.80;;;;;;5072973;28;20028;-66
2022/10/21 01:38:49;;;;;;;6.97;4.30;;;10.40;95.20;;;;;;5064045;28;20040;-65
2022/10/21 01:41:29;;;;;;;7.10;4.63;;;10.40;95.30;;;;;;5072723;28;20036;-65
2022/10/21 01:44:18;;;;;;;11.25;4.32;;;10.40;95.60;;;;;;5072647;28;20520;-67
2022/10/21 01:46:58;;;;;;;8.05;4.75;;;10.40;95.80;;;;;;5055182;28;20062;-65
2022/10/21 01:49:52;;;;;;;7.35;4.07;;;10.30;95.80;;;;;;5073101;28;20314;-65
2022/10/21 01:52:19;;;;;;;7.70;4.70;;;10.30;96.10;;;;;;5072517;28;20024;-66
2022/10/21 01:54:51;;;;;;;5.43;4.35;;;10.30;96.00;;;;;;5072153;28;20531;-66
2022/10/21 01:57:19;;;;;;;6.85;4.78;;;10.30;96.00;;;;;;5054945;28;20048;-66
2022/10/21 01:59:46;;;;;;;6.22;4.45;;;10.30;96.00;;;;;;5072662;28;20031;-67
2022/10/21 02:02:14;;;;;;;7.38;4.35;;;10.30;96.00;;;;;;5072343;28;20358;-67
2022/10/21 02:04:41;;;;;;;7.78;4.75;;;10.40;96.00;;;;;;5072538;28;20029;-66
2022/10/21 02:07:08;;;;;;;7.43;4.90;;;10.30;96.20;;;;;;5072228;28;20021;-66
2022/10/21 02:09:33;;;;;;;6.75;4.47;;;10.30;96.20;;;;;;5072661;28;20437;-66
2022/10/21 02:12:02;;;;;;;6.47;4.47;;;10.30;96.20;;;;;;5071897;28;20039;-66
2022/10/21 02:14:36;;;;;;;8.57;4.85;;;10.30;96.20;;;;;;5072714;28;20065;-66
2022/10/21 02:17:03;;;;;;;7.68;4.63;;;10.30;96.30;;;;;;5072004;28;20107;-65
2022/10/21 02:19:28;;;;;;;8.60;4.68;;;10.30;96.40;;;;;;5072760;28;20029;-65
2022/10/21 02:21:59;;;;;;;6.65;4.55;;;10.20;96.50;;;;;;5072570;28;20035;-66
2022/10/21 02:24:32;;;;;;;8.85;5.10;;;10.20;96.70;;;;;;5072472;28;20113;-66
2022/10/21 02:26:57;;;;;;;6.63;4.45;;;10.30;96.70;;;;;;5072472;28;20457;-68
2022/10/21 02:29:28;;;;;;;9.98;4.80;;;10.30;96.40;;;;;;5072523;28;20029;-66
2022/10/21 02:32:01;;;;;;;8.07;4.75;;;10.20;96.60;;;;;;5072236;28;20039;-65
2022/10/21 02:34:45;;;;;;;9.30;4.63;;;10.20;96.70;;;;;;5072507;28;20457;-65
2022/10/21 02:37:34;;;;;;;8.88;4.75;;;10.20;96.80;;;;;;5071938;28;20115;-65
2022/10/21 02:40:12;;;;;;;12.82;5.45;;;10.20;96.60;;;;;;5072158;28;20052;-65
2022/10/21 02:42:43;;;;;;;23.42;5.00;;;10.20;96.70;;;;;;5072204;28;20036;-65
2022/10/21 02:45:09;;;;;;;;;;;10.20;96.70;;;;;;5072230;28;20048;-65
2022/10/21 02:47:39;;;;;;;5.88;4.38;;;10.20;96.40;;;;;;5072209;28;19997;-65
2022/10/21 02:50:06;;;;;;;8.57;5.55;;;10.20;96.40;;;;;;5071870;28;20358;-65
2022/10/21 02:52:32;;;;;;;7.07;5.22;;;10.10;96.50;;;;;;5072160;28;20120;-65
2022/10/21 02:54:57;;;;;;;8.80;4.70;;;10.10;96.70;;;;;;5072028;28;20068;-65
2022/10/21 02:57:23;;;;;;;9.93;5.05;;;10.20;96.40;;;;;;5054238;28;20049;-65
2022/10/21 02:59:49;;;;;;;8.85;5.32;;;10.20;96.30;;;;;;5051860;28;20032;-65
2022/10/21 03:02:14;;;;;;;8.35;5.47;;;10.20;96.30;;;;;;5051333;28;20053;-65
2022/10/21 03:04:40;;;;;;;8.32;4.85;;;10.10;96.30;;;;;;5052165;28;20635;-65
2022/10/21 03:07:05;;;;;;;8.55;4.82;;;10.10;96.40;;;;;;5053839;28;20100;-65
2022/10/21 03:09:31;;;;;;;7.65;4.80;;;10.10;96.40;;;;;;5055647;28;20079;-65
2022/10/21 03:11:57;;;;;;;8.95;5.40;;;10.10;96.40;;;;;;5056027;28;20055;-65
2022/10/21 03:14:22;;;;;;;9.30;5.63;;;10.10;96.40;;;;;;5055452;28;20035;-65
2022/10/21 03:16:48;;;;;;;7.22;4.85;;;10.10;96.30;;;;;;5055685;28;20059;-65
2022/10/21 03:19:13;;;;;;;9.85;5.00;;;10.10;96.30;;;;;;5055548;28;20028;-65
2022/10/21 03:21:39;;;;;;;8.45;5.28;;;10.10;96.10;;;;;;5055447;28;20071;-65
2022/10/21 03:24:05;;;;;;;5.95;4.85;;;10.10;96.10;;;;;;5055281;28;20021;-66
2022/10/21 03:26:30;;;;;;;6.82;5.20;;;10.10;96.10;;;;;;5055774;28;20051;-65
2022/10/21 03:28:56;;;;;;;9.52;5.63;;;10.10;95.90;;;;;;5055542;28;20032;-66
2022/10/21 03:31:22;;;;;;;12.35;5.82;;;10.10;95.80;;;;;;5055221;28;20036;-66
2022/10/21 03:33:47;;;;;;;9.00;5.57;;;10.00;95.80;;;;;;5055698;28;20029;-66
2022/10/21 03:36:13;;;;;;;9.57;5.55;;;10.00;95.90;;;;;;5055158;28;20036;-67
2022/10/21 03:38:38;;;;;;;7.85;5.00;;;10.00;95.90;;;;;;5055593;28;20326;-67
2022/10/21 03:41:04;;;;;;;7.15;4.65;;;10.00;95.70;;;;;;5055301;28;20033;-67
2022/10/21 03:43:30;;;;;;;6.40;5.05;;;10.00;95.60;;;;;;5055312;28;20025;-65
2022/10/21 03:45:55;;;;;;;8.00;5.32;;;10.00;95.60;;;;;;5055236;28;20036;-66
2022/10/21 03:48:21;;;;;;;8.18;4.90;;;10.00;95.50;;;;;;5054167;28;20028;-66
2022/10/21 03:50:47;;;;;;;8.23;4.70;;;10.00;95.70;;;;;;5055145;28;20412;-66
2022/10/21 03:53:12;;;;;;;8.48;4.90;;;10.00;95.50;;;;;;5054962;28;20029;-66
2022/10/21 03:55:38;;;;;;;7.97;5.30;;;10.00;95.40;;;;;;5064240;28;20043;-66
2022/10/21 03:58:04;;;;;;;6.68;4.82;;;10.00;95.30;;;;;;5095456;28;20024;-66
2022/10/21 04:00:29;;;;;;;9.32;5.00;;;10.00;95.40;;;;;;5076798;28;20020;-66
2022/10/21 04:02:55;;;;;;;7.05;5.07;;;9.90;95.30;;;;;;5095036;28;20024;-66
2022/10/21 04:05:20;;;;;;;7.60;5.25;;;9.90;95.50;;;;;;5076918;28;20034;-66
2022/10/21 04:07:46;;;;;;;6.25;4.47;;;9.90;95.30;;;;;;5096298;28;20131;-65
2022/10/21 04:10:12;;;;;;;10.30;5.53;;;9.90;95.30;;;;;;5077831;28;20032;-65
2022/10/21 04:12:38;;;;;;;6.93;4.70;;;9.90;95.10;;;;;;5095655;28;20040;-65
2022/10/21 04:15:05;;;;;;;6.53;4.65;;;9.90;95.20;;;;;;5095590;28;20035;-66
2022/10/21 04:17:31;;;;;;;10.20;5.13;;;9.90;95.20;;;;;;5095582;28;20468;-66
2022/10/21 04:19:57;;;;;;;9.13;5.00;;;9.90;95.10;;;;;;5095159;28;20054;-65
2022/10/21 04:22:22;;;;;;;8.13;5.38;;;9.90;95.20;;;;;;5094992;28;20020;-65
2022/10/21 04:24:48;;;;;;;9.18;5.18;;;9.90;95.20;;;;;;5094875;28;20023;-65
2022/10/21 04:27:14;;;;;;;10.25;5.32;;;9.80;95.20;;;;;;5094872;28;20028;-66
2022/10/21 04:29:39;;;;;;;7.78;5.13;;;9.70;95.40;;;;;;5095292;28;20036;-65
2022/10/21 04:32:05;;;;;;;9.60;5.57;;;9.70;95.70;;;;;;5094989;28;20032;-65
2022/10/21 04:34:30;;;;;;;11.40;4.90;;;9.70;95.80;;;;;;5094662;28;20036;-66
2022/10/21 04:36:56;;;;;;;7.57;5.15;;;9.60;95.70;;;;;;5094968;28;20039;-65
2022/10/21 04:39:22;;;;;;;9.50;5.25;;;9.60;95.70;;;;;;5094304;28;20116;-66
2022/10/21 04:41:49;;;;;;;7.13;4.70;;;9.60;95.70;;;;;;5094690;28;20479;-65
2022/10/21 04:44:15;;;;;;;8.10;5.45;;;9.60;95.80;;;;;;5094139;28;20032;-66
2022/10/21 04:46:40;;;;;;;10.98;5.28;;;9.60;95.80;;;;;;5094194;28;20053;-66
2022/10/21 04:49:06;;;;;;;7.53;5.30;;;9.50;96.00;;;;;;5076350;28;20452;-66
2022/10/21 04:51:32;;;;;;;6.25;4.82;;;9.50;96.10;;;;;;5093768;28;20028;-66
2022/10/21 04:53:57;;;;;;;9.45;5.00;;;9.50;96.20;;;;;;5094349;28;20031;-66
2022/10/21 04:56:23;;;;;;;6.57;5.25;;;9.50;96.00;;;;;;5094011;28;20048;-67
2022/10/21 04:58:48;;;;;;;7.60;5.13;;;9.50;95.90;;;;;;5094290;28;20020;-66
2022/10/21 05:01:14;;;;;;;8.40;4.88;;;9.50;95.90;;;;;;5093838;28;20032;-66
2022/10/21 05:03:40;;;;;;;7.13;5.00;;;9.50;95.90;;;;;;5094209;28;20062;-66
2022/10/21 05:06:05;;;;;;;7.25;4.57;;;9.40;96.20;;;;;;5093927;28;20024;-66
2022/10/21 05:08:31;;;;;;;9.10;5.18;;;9.50;96.20;;;;;;5093531;28;20034;-66
2022/10/21 05:10:59;;;;;;;9.85;5.43;;;9.40;96.40;;;;;;5093834;28;20036;-65
2022/10/21 05:13:24;;;;;;;7.45;5.22;;;9.40;96.40;;;;;;5093561;28;20036;-65
2022/10/21 05:15:50;;;;;;;9.80;5.47;;;9.40;96.40;;;;;;5094317;28;20096;-65
2022/10/21 05:18:16;;;;;;;6.30;4.82;;;9.30;96.70;;;;;;5093475;28;20048;-67
2022/10/21 05:20:41;;;;;;;7.90;5.55;;;9.30;96.80;;;;;;5093949;28;20050;-65
2022/10/21 05:23:07;;;;;;;8.77;5.22;;;9.40;96.70;;;;;;5093808;28;20431;-66
2022/10/21 05:25:33;;;;;;;8.18;5.20;;;9.30;96.70;;;;;;5093375;28;20024;-66
2022/10/21 05:27:58;;;;;;;10.85;5.95;;;9.30;96.70;;;;;;5093757;28;20035;-66
2022/10/21 05:30:24;;;;;;;12.20;5.07;;;9.30;96.70;;;;;;5092444;28;20032;-66
2022/10/21 05:32:49;;;;;;;6.90;4.90;;;9.30;96.70;;;;;;5093607;28;20032;-66
2022/10/21 05:35:15;;;;;;;10.10;5.00;;;9.30;96.80;;;;;;5093239;28;20028;-67
2022/10/21 05:37:41;;;;;;;7.40;4.65;;;9.20;96.70;;;;;;5093542;28;20427;-66
2022/10/21 05:40:07;;;;;;;8.65;4.57;;;9.20;97.00;;;;;;5093550;28;20020;-66
2022/10/21 05:42:33;;;;;;;7.35;4.68;;;9.20;97.00;;;;;;5093237;28;20114;-66
2022/10/21 05:44:58;;;;;;;9.25;5.40;;;9.20;96.90;;;;;;5093567;28;20473;-66
2022/10/21 05:47:24;;;;;;;7.60;5.30;;;9.20;97.10;;;;;;5092944;28;20099;-67
2022/10/21 05:49:50;;;;;;;10.68;4.78;;;9.10;97.40;;;;;;5072720;28;20021;-65
2022/10/21 05:52:16;;;;;;;8.15;5.55;;;9.10;97.40;;;;;;5072787;28;20025;-66
2022/10/21 05:54:41;;;;;;;9.25;4.97;;;9.10;97.40;;;;;;5072645;28;20025;-66
2022/10/21 05:57:07;;;;;;;5.85;4.18;;;9.10;97.50;;;;;;5061946;28;20393;-66
2022/10/21 05:59:32;;;;;;;8.63;4.97;;;9.10;97.40;;;;;;5072423;28;20031;-65
2022/10/21 06:01:58;;;;;;;8.50;4.80;;;9.10;97.40;;;;;;5072762;28;20465;-66
2022/10/21 06:04:24;;;;;;;9.45;5.35;;;9.10;97.50;;;;;;5072287;28;20070;-67
2022/10/21 06:06:49;;;;;;;9.57;5.07;;;9.10;97.50;;;;;;5072575;28;20135;-66
2022/10/21 06:09:15;;;;;;;7.50;4.72;;;9.10;97.50;;;;;;5072453;28;20066;-65
2022/10/21 06:11:40;;;;;;;9.02;5.03;;;9.10;97.80;;;;;;5071444;28;20040;-66
2022/10/21 06:14:06;;;;;;;6.60;4.57;;;9.20;97.80;;;;;;5054220;28;20129;-66
2022/10/21 06:16:34;;;;;;;9.40;4.72;;;9.10;97.60;;;;;;5072308;28;20587;-65
2022/10/21 06:19:00;;;;;;;8.23;4.93;;;9.10;97.70;;;;;;5072252;28;20113;-66
2022/10/21 06:21:26;;;;;;;7.20;5.00;;;9.20;97.70;;;;;;5072030;28;20470;-67
2022/10/21 06:23:53;;;;;;;9.45;4.63;;;9.20;97.80;;;;;;5072220;28;20099;-67
2022/10/21 06:26:19;;;;;;;7.00;4.28;;;9.20;97.70;;;;;;5072064;28;20028;-66
2022/10/21 06:28:45;;;;;;;9.13;4.97;;;9.20;97.50;;;;;;5072942;28;20031;-65
2022/10/21 06:31:16;;;;;;;9.50;5.05;;;9.30;97.20;;;;;;5072542;28;20040;-66
2022/10/21 06:33:41;;;;;;;12.25;4.50;;;9.30;97.10;;;;;;5071953;28;20086;-65
2022/10/21 06:36:07;;;;;;;8.55;4.82;;;9.30;97.10;;;;;;5072499;28;20037;-66
2022/10/21 06:38:33;;;;;;;7.55;5.40;;;9.40;97.20;;;;;;5072258;28;20112;-66
2022/10/21 06:41:17;;;;;;;8.90;4.75;;;9.40;97.20;;;;;;5072580;28;20031;-65
2022/10/21 06:43:43;;;;;;;13.68;5.63;;;9.40;97.50;;;;;;5076145;28;20443;-65
2022/10/21 06:46:12;;;;;;;9.73;4.88;;;9.50;97.40;;;;;;5076411;28;20067;-65
2022/10/21 06:48:38;;;;;;;9.77;6.10;;;9.60;97.00;;;;;;5076082;28;20066;-65
2022/10/21 06:51:09;;;;;;;6.72;4.80;;;9.70;96.70;;;;;;5076362;28;20461;-65
2022/10/21 06:53:35;;;;;;;11.63;5.40;;;9.70;96.60;;;;;;5075812;28;20036;-65
2022/10/21 06:56:01;;;;;;;7.72;4.80;;;9.80;96.70;;;;;;5075932;28;20060;-65
2022/10/21 06:58:28;;;;;;;15.27;5.25;;;9.80;96.60;;;;;;5075768;28;20025;-65
2022/10/21 07:00:53;;;;;;;6.88;4.95;;;10.00;96.00;;;;;;5076153;28;20421;-66
2022/10/21 07:03:19;;;;;;;11.23;5.13;;;10.10;95.60;;;;;;5076537;28;20139;-64
2022/10/21 07:05:44;;;;;;;10.30;4.95;;;10.20;95.10;;;;;;5075754;28;20024;-65
2022/10/21 07:08:10;;;;;;;7.88;5.38;;;10.30;94.90;;;;;;5076087;28;20419;-65
2022/10/21 07:10:36;;;;;;;8.02;4.55;;;10.50;94.70;;;;;;5057858;28;20433;-64
2022/10/21 07:13:01;;;;;;;9.32;5.20;;;10.60;94.20;;;;;;5075688;28;20434;-65
2022/10/21 07:15:27;;;;;;;8.02;5.22;;;10.70;93.30;;;;;;5075526;28;20048;-66
2022/10/21 07:17:58;;;;;;;6.63;4.63;;;10.80;93.00;;;;;;5075919;28;20099;-66
2022/10/21 07:20:23;;;;;;;6.75;4.57;;;11.00;92.50;;;;;;5075497;28;20078;-67
2022/10/21 07:22:49;;;;;;;7.22;4.55;;;11.10;91.70;;;;;;5075430;28;20032;-66
2022/10/21 07:25:14;;;;;;;8.15;4.50;;;11.20;91.40;;;;;;5075771;28;20028;-66
2022/10/21 07:27:40;;;;;;;5.40;3.83;;;11.30;91.10;;;;;;5075209;28;20029;-66
2022/10/21 07:30:06;;;;;;;9.85;4.80;;;11.30;90.70;;;;;;5075528;28;20024;-66
2022/10/21 07:32:32;;;;;;;7.75;4.72;;;11.50;90.50;;;;;;5074773;28;20050;-66
2022/10/21 07:34:59;;;;;;;8.00;4.47;;;11.60;90.40;;;;;;5075352;28;20489;-64
2022/10/21 07:37:24;;;;;;;5.55;4.13;;;11.70;90.00;;;;;;5075555;28;20028;-66
2022/10/21 07:39:50;;;;;;;7.68;4.25;;;11.80;89.20;;;;;;5075717;28;20032;-66
2022/10/21 07:42:16;;;;;;;11.02;4.53;;;11.90;88.30;;;;;;5075633;28;20041;-65
2022/10/21 07:44:41;;;;;;;12.63;4.72;;;12.00;87.50;;;;;;5075267;28;20024;-66
2022/10/21 07:47:07;;;;;;;7.25;4.35;;;12.00;87.30;;;;;;5075334;28;20035;-66
2022/10/21 07:49:32;;;;;;;6.75;4.18;;;12.10;86.30;;;;;;5074641;28;20028;-64
2022/10/21 07:51:58;;;;;;;6.32;4.38;;;12.30;85.50;;;;;;5074889;28;20134;-65
2022/10/21 07:54:24;;;;;;;9.02;3.85;;;12.30;84.40;;;;;;5061168;28;20024;-65
2022/10/21 07:56:51;;;;;;;13.63;4.72;;;12.40;84.40;;;;;;5089036;28;20102;-64
2022/10/21 07:59:19;;;;;;;8.15;4.47;;;12.50;83.80;;;;;;5075234;28;20468;-64
2022/10/21 08:01:46;;;;;;;9.07;4.18;;;12.60;83.80;;;;;;5056726;28;20036;-65
2022/10/21 08:04:15;;;;;;;7.80;4.13;;;12.70;83.40;;;;;;5075077;28;20035;-64
2022/10/21 08:06:41;;;;;;;9.38;4.18;;;12.80;82.00;;;;;;5074601;28;20092;-64
2022/10/21 08:09:07;;;;;;;6.93;3.97;;;12.90;81.30;;;;;;5074732;28;20020;-64
2022/10/21 08:11:33;;;;;;;21.00;5.22;;;12.90;80.60;;;;;;5074208;28;20028;-64
2022/10/21 08:13:59;;;;;;;6.95;3.88;;;13.10;79.80;;;;;;5074804;28;20142;-65
2022/10/21 08:16:25;;;;;;;6.40;4.07;;;13.10;79.90;;;;;;5074645;28;20057;-65
2022/10/21 08:18:52;;;;;;;7.65;4.28;;;13.20;79.90;;;;;;5074485;28;20485;-65
2022/10/21 08:21:17;;;;;;;7.57;4.40;;;13.30;78.70;;;;;;5074359;28;20400;-65
2022/10/21 08:23:43;;;;;;;8.40;5.70;;;13.30;78.50;;;;;;5074241;28;20028;-65
2022/10/21 08:26:14;;;;;;;6.57;4.10;;;13.30;78.00;;;;;;5074656;28;20024;-65
2022/10/21 08:28:40;;;;;;;11.13;3.70;;;13.40;77.80;;;;;;5073943;28;20443;-65
2022/10/21 08:31:10;;;;;;;4.85;3.72;;;13.50;77.70;;;;;;5074319;28;20032;-65
2022/10/21 08:33:36;;;;;;;8.15;3.80;;;13.60;77.20;;;;;;5074356;28;20036;-65
2022/10/21 08:36:15;;;;;;;7.15;4.05;;;13.70;76.50;;;;;;5074460;28;20035;-65
2022/10/21 08:38:41;;;;;;;8.90;4.28;;;13.70;75.80;;;;;;5073878;28;20373;-65
2022/10/21 08:41:29;;;;;;;5.55;4.10;;;13.60;76.00;;;;;;5073989;28;20028;-66
2022/10/21 08:44:05;;;;;;;6.70;3.72;;;13.60;75.80;;;;;;5074154;28;20027;-65
2022/10/21 08:46:56;;;;;;;5.72;3.80;;;13.50;76.40;;;;;;5073798;28;20155;-65
2022/10/21 08:49:33;;;;;;;6.70;4.03;;;13.50;76.10;;;;;;5062850;28;20040;-65
2022/10/21 08:52:11;;;;;;;6.07;3.55;;;13.50;76.30;;;;;;5073680;28;20060;-65
2022/10/21 08:54:54;;;;;;;11.38;3.92;;;13.50;76.50;;;;;;5073905;28;20152;-67
2022/10/21 08:57:20;;;;;;;11.02;4.20;;;13.60;76.30;;;;;;5073441;28;20048;-65
2022/10/21 08:59:46;;;;;;;5.10;3.90;;;13.60;76.40;;;;;;5073465;28;20102;-65
2022/10/21 09:02:12;;;;;;;9.00;4.82;;;13.50;76.70;;;;;;5073807;28;20479;-65
2022/10/21 09:05:01;;;;;;;5.35;3.67;;;13.50;76.70;;;;;;5072284;28;20055;-65
2022/10/21 09:07:32;;;;;;;8.93;3.80;;;13.40;76.50;;;;;;5073777;28;20032;-65
2022/10/21 09:10:14;;;;;;;6.70;4.22;;;13.30;76.70;;;;;;5074044;28;20028;-65
2022/10/21 09:12:51;;;;;;;7.68;4.30;;;13.20;77.20;;;;;;5073737;28;20028;-65
2022/10/21 09:15:19;;;;;;;5.93;4.05;;;13.10;77.50;;;;;;5073749;28;20043;-65
2022/10/21 09:18:20;;;;;;;11.25;4.53;;;13.00;78.10;;;;;;5073221;28;20036;-65
2022/10/21 09:21:06;;;;;;;6.82;4.38;;;13.00;78.80;;;;;;5032779;28;20037;-65
2022/10/21 09:23:46;;;;;;;7.57;4.20;;;13.00;79.00;;;;;;5073335;28;20421;-65
2022/10/21 09:26:21;;;;;;;7.03;3.83;;;13.00;79.30;;;;;;5073732;28;20133;-65
2022/10/21 09:28:47;;;;;;;9.68;4.50;;;12.90;79.40;;;;;;5072730;28;20029;-65
2022/10/21 09:31:18;;;;;;;8.52;4.18;;;12.90;79.40;;;;;;5073326;28;20029;-65
2022/10/21 09:33:54;;;;;;;8.20;4.22;;;13.00;79.60;;;;;;5072742;28;20420;-65
2022/10/21 09:36:33;;;;;;;6.95;3.80;;;12.90;80.00;;;;;;5073289;28;20444;-65
2022/10/21 09:39:06;;;;;;;7.10;4.60;;;12.90;80.10;;;;;;5073377;28;20108;-65
2022/10/21 09:41:37;;;;;;;7.25;4.22;;;12.80;80.30;;;;;;5073175;28;20036;-65
2022/10/21 09:44:03;;;;;;;10.07;4.15;;;12.80;80.30;;;;;;5073289;28;20074;-64
2022/10/21 09:46:29;;;;;;;6.10;3.72;;;12.80;80.20;;;;;;5086396;28;20051;-64
2022/10/21 09:48:56;;;;;;;9.95;3.58;;;12.90;80.30;;;;;;5092981;28;20439;-65
2022/10/21 09:51:34;;;;;;;6.55;4.15;;;12.90;79.90;;;;;;5093258;28;20040;-64
2022/10/21 09:54:22;;;;;;;6.70;3.53;;;12.90;79.80;;;;;;5090212;28;20036;-64
2022/10/21 09:57:09;;;;;;;6.68;3.58;;;13.00;80.00;;;;;;5052508;28;20045;-64
2022/10/21 09:59:36;;;;;;;7.60;3.33;;;13.10;79.30;;;;;;5052267;28;20025;-65
2022/10/21 10:02:07;;;;;;;7.00;3.75;;;13.20;79.10;;;;;;5052619;28;20048;-65
2022/10/21 10:04:34;;;;;;;4.45;3.22;;;13.30;77.50;;;;;;5052573;28;20466;-65
2022/10/21 10:07:26;;;;;;;7.53;4.28;;;13.40;77.40;;;;;;5052405;28;20078;-65
2022/10/21 10:09:52;;;;;;;6.30;3.33;;;13.40;76.50;;;;;;5052593;28;20029;-65
2022/10/21 10:12:22;;;;;;;7.43;3.97;;;13.40;76.20;;;;;;5052789;28;20040;-65
2022/10/21 10:14:49;;;;;;;6.13;3.60;;;13.30;76.70;;;;;;5052476;28;20037;-65
2022/10/21 10:17:29;;;;;;;5.75;3.38;;;13.30;76.50;;;;;;5052612;28;20113;-65
2022/10/21 10:20:04;;;;;;;5.93;3.67;;;13.20;76.40;;;;;;5052086;28;20052;-65
2022/10/21 10:22:37;;;;;;;5.72;3.47;;;13.20;77.00;;;;;;5052519;28;20484;-65
2022/10/21 10:25:21;;;;;;;8.38;3.63;;;13.20;77.00;;;;;;5052646;28;20116;-65
2022/10/21 10:27:51;;;;;;;7.70;3.20;;;13.30;76.40;;;;;;5052282;28;20029;-65
2022/10/21 10:30:17;;;;;;;8.85;3.42;;;13.30;76.60;;;;;;5052542;28;20025;-65
2022/10/21 10:32:45;;;;;;;9.63;4.43;;;13.30;76.40;;;;;;5052039;28;20040;-65
2022/10/21 10:35:27;;;;;;;5.78;3.70;;;13.30;76.10;;;;;;5052240;28;20370;-66
2022/10/21 10:37:53;;;;;;;6.95;3.83;;;13.20;76.30;;;;;;5052084;28;20025;-65
2022/10/21 10:40:25;;;;;;;6.03;4.20;;;13.20;76.20;;;;;;5052404;28;20025;-64
2022/10/21 10:43:02;;;;;;;9.32;4.40;;;13.00;76.60;;;;;;5050774;28;20036;-65
2022/10/21 10:45:28;;;;;;;10.23;4.35;;;13.00;77.20;;;;;;5052286;28;20029;-66
2022/10/21 10:47:57;;;;;;;6.28;3.55;;;12.90;77.30;;;;;;5052052;28;20024;-65
2022/10/21 10:50:41;;;;;;;8.95;3.78;;;13.00;77.80;;;;;;5052370;28;20063;-66
2022/10/21 10:53:22;;;;;;;7.97;4.32;;;12.90;77.60;;;;;;5052370;28;20037;-66
2022/10/21 10:56:14;;;;;;;5.63;3.97;;;13.00;77.20;;;;;;5051874;28;20049;-66
2022/10/21 10:59:09;;;;;;;6.75;3.72;;;13.00;77.20;;;;;;5031783;28;20060;-66
2022/10/21 11:01:41;;;;;;;9.18;3.92;;;13.10;77.50;;;;;;5052397;28;20120;-65
2022/10/21 11:04:24;;;;;;;5.93;3.88;;;13.10;77.00;;;;;;5052330;28;20350;-66
2022/10/21 11:06:55;;;;;;;7.15;4.18;;;13.10;76.80;;;;;;5051565;28;20078;-66
2022/10/21 11:09:22;;;;;;;7.40;3.83;;;13.00;76.90;;;;;;5052415;28;20025;-64
2022/10/21 11:11:53;;;;;;;6.47;4.53;;;13.00;77.10;;;;;;5051733;28;20037;-65
2022/10/21 11:14:20;;;;;;;11.02;4.00;;;13.00;77.20;;;;;;5051920;28;20473;-65
2022/10/21 11:17:15;;;;;;;10.48;4.25;;;13.00;77.10;;;;;;5033742;28;20032;-65
2022/10/21 11:20:15;;;;;;;8.32;3.80;;;13.10;77.30;;;;;;5051128;28;20028;-65
2022/10/21 11:23:22;;;;;;;6.38;4.07;;;13.20;77.10;;;;;;5051394;28;20036;-66
2022/10/21 11:26:13;;;;;;;15.40;4.93;;;13.30;76.20;;;;;;5052107;28;20097;-64
2022/10/21 11:28:47;;;;;;;6.05;3.50;;;13.30;75.70;;;;;;5054861;28;20056;-66
2022/10/21 11:31:25;;;;;;;6.82;3.53;;;13.30;75.70;;;;;;5055219;28;20546;-66
2022/10/21 11:34:23;;;;;;;9.50;4.38;;;13.40;75.70;;;;;;5055324;28;20112;-65
2022/10/21 11:37:03;;;;;;;11.85;4.00;;;13.40;75.30;;;;;;5031576;28;20377;-65
2022/10/21 11:39:41;;;;;;;8.32;4.20;;;13.50;75.30;;;;;;5055529;28;20039;-64
2022/10/21 11:42:25;;;;;;;9.93;3.95;;;13.50;75.10;;;;;;5064570;28;20039;-65
2022/10/21 11:45:18;;;;;;;5.97;4.20;;;13.60;74.50;;;;;;5094999;28;20138;-65
2022/10/21 11:48:04;;;;;;;6.75;4.30;;;13.60;74.90;;;;;;5094927;28;20097;-66
2022/10/21 11:50:59;;;;;;;6.45;4.47;;;13.60;74.80;;;;;;5095969;28;20035;-65
2022/10/21 11:53:38;;;;;;;7.45;3.78;;;13.60;74.60;;;;;;5078164;28;20040;-65
2022/10/21 11:56:09;;;;;;;9.48;4.03;;;13.60;74.50;;;;;;5075078;28;20136;-65
2022/10/21 11:58:37;;;;;;;;;;;13.70;74.80;;;;;;5075505;28;20029;-65
2022/10/21 12:01:15;;;;;;;8.77;3.90;;;13.60;74.60;;;;;;5074784;28;19916;-65
2022/10/21 12:03:50;;;;;;;7.68;3.75;;;13.70;74.60;;;;;;5074914;28;20041;-65
2022/10/21 12:06:15;;;;;;;6.75;3.80;;;13.70;74.50;;;;;;5075071;28;20445;-65
2022/10/21 12:08:58;;;;;;;6.13;4.32;;;13.70;74.50;;;;;;5057056;28;20060;-65
2022/10/21 12:12:00;;;;;;;3.85;3.40;;;13.70;74.50;;;;;;5074944;28;20373;-64
2022/10/21 12:14:49;;;;;;;6.38;4.03;;;13.80;74.40;;;;;;5075027;28;20032;-66
2022/10/21 12:17:18;;;;;;;6.40;4.03;;;13.70;73.80;;;;;;5057115;28;20412;-66
2022/10/21 12:20:00;;;;;;;6.90;3.95;;;13.70;74.20;;;;;;5074656;28;20051;-68
2022/10/21 12:22:29;;;;;;;8.65;3.80;;;13.70;74.20;;;;;;5074776;28;20032;-66
2022/10/21 12:24:59;;;;;;;11.25;3.92;;;13.70;74.50;;;;;;5056429;28;20035;-66
2022/10/21 12:27:40;;;;;;;8.73;4.33;;;13.70;74.50;;;;;;5074799;28;20462;-65
2022/10/21 12:30:15;;;;;;;5.22;4.05;;;13.70;74.20;;;;;;5074271;28;20299;-64
2022/10/21 12:32:50;;;;;;;6.43;4.28;;;13.60;74.50;;;;;;5074727;28;20377;-64
2022/10/21 12:35:26;;;;;;;9.13;4.20;;;13.50;74.20;;;;;;5074470;28;20029;-65
2022/10/21 12:37:52;;;;;;;5.22;4.03;;;13.50;74.90;;;;;;5073970;28;20031;-66
2022/10/21 12:40:26;;;;;;;14.93;4.97;;;13.60;75.10;;;;;;5073171;28;20025;-66
2022/10/21 12:43:04;;;;;;;9.60;4.38;;;13.50;75.00;;;;;;5074228;28;20142;-66
2022/10/21 12:45:33;;;;;;;12.00;4.32;;;13.50;75.10;;;;;;5074418;28;20114;-65
2022/10/21 12:48:00;;;;;;;6.18;4.03;;;13.50;75.20;;;;;;5073740;28;20028;-65
2022/10/21 12:50:29;;;;;;;8.05;4.40;;;13.50;75.10;;;;;;5074245;28;20029;-65
2022/10/21 12:53:35;;;;;;;10.02;4.55;;;13.50;75.40;;;;;;5073817;28;20024;-65
2022/10/21 12:56:01;;;;;;;5.43;4.45;;;13.40;75.10;;;;;;5073545;28;20364;-65
2022/10/21 12:58:45;;;;;;;7.25;4.30;;;13.40;75.20;;;;;;5073992;28;20036;-65
2022/10/21 13:01:44;;;;;;;16.10;4.28;;;13.30;75.40;;;;;;5074093;28;20036;-65
2022/10/21 13:04:31;;;;;;;6.07;4.18;;;13.30;75.60;;;;;;5073687;28;20032;-65
2022/10/21 13:07:01;;;;;;;10.30;4.60;;;13.30;75.60;;;;;;5073646;28;20017;-65
2022/10/21 13:09:33;;;;;;;7.43;4.40;;;13.30;75.40;;;;;;5074146;28;20082;-64